createdAt,value
2022-10-04T00:01:43.445Z,81.13
2022-10-04T00:04:38.083Z,81.11
2022-10-04T00:07:12.984Z,81.10
2022-10-04T00:09:56.897Z,81.10
2022-10-04T00:12:40.213Z,81.09
2022-10-04T00:15:34.139Z,81.10
2022-10-04T00:18:38.038Z,81.10
2022-10-04T00:21:07.086Z,81.15
2022-10-04T00:23:36.486Z,81.18
2022-10-04T00:26:10.090Z,81.23
2022-10-04T00:28:36.437Z,81.30
2022-10-04T00:31:13.730Z,81.33
2022-10-04T00:33:53.545Z,81.38
2022-10-04T00:36:25.664Z,81.42
2022-10-04T00:39:04.411Z,81.48
2022-10-04T00:41:40.433Z,81.56
2022-10-04T00:44:17.028Z,81.59
2022-10-04T00:46:44.273Z,81.62
2022-10-04T00:49:12.192Z,81.66
2022-10-04T00:51:43.946Z,81.68
2022-10-04T00:54:38.069Z,81.72
2022-10-04T00:57:09.797Z,81.76
2022-10-04T00:59:52.526Z,81.82
2022-10-04T01:02:45.315Z,81.85
2022-10-04T01:05:19.456Z,81.87
2022-10-04T01:07:51.130Z,81.93
2022-10-04T01:10:36.247Z,82.02
2022-10-04T01:13:15.639Z,82.08
2022-10-04T01:15:53.320Z,82.15
2022-10-04T01:18:19.788Z,82.20
2022-10-04T01:21:05.735Z,82.26
2022-10-04T01:24:15.261Z,82.30
2022-10-04T01:26:44.475Z,82.38
2022-10-04T01:29:18.581Z,82.47
2022-10-04T01:31:48.659Z,82.59
2022-10-04T01:34:21.798Z,82.65
2022-10-04T01:36:50.770Z,82.69
2022-10-04T01:39:19.061Z,82.75
2022-10-04T01:42:05.473Z,82.81
2022-10-04T01:44:45.451Z,82.96
2022-10-04T01:47:17.563Z,83.03
2022-10-04T01:49:44.750Z,83.07
2022-10-04T01:52:44.090Z,83.11
2022-10-04T01:55:20.809Z,83.16
2022-10-04T01:57:55.925Z,83.27
2022-10-04T02:00:23.728Z,83.34
2022-10-04T02:02:51.803Z,83.38
2022-10-04T02:05:30.853Z,83.44
2022-10-04T02:08:02.250Z,83.53
2022-10-04T02:10:29.715Z,83.62
2022-10-04T02:12:56.529Z,83.69
2022-10-04T02:15:27.650Z,83.74
2022-10-04T02:17:54.979Z,83.79
2022-10-04T02:20:24.963Z,83.82
2022-10-04T02:22:58.614Z,83.84
2022-10-04T02:25:26.262Z,83.87
2022-10-04T02:27:53.411Z,83.96
2022-10-04T02:30:20.460Z,84.02
2022-10-04T02:32:59.962Z,84.10
2022-10-04T02:35:45.905Z,84.13
2022-10-04T02:38:12.323Z,84.20
2022-10-04T02:41:07.732Z,84.29
2022-10-04T02:43:42.674Z,84.33
2022-10-04T02:46:23.650Z,84.37
2022-10-04T02:48:58.071Z,84.39
2022-10-04T02:51:45.802Z,84.42
2022-10-04T02:54:33.130Z,84.45
2022-10-04T02:57:00.640Z,84.49
2022-10-04T02:59:27.787Z,84.56
2022-10-04T03:01:58.406Z,84.64
2022-10-04T03:04:28.387Z,84.71
2022-10-04T03:06:56.005Z,84.80
2022-10-04T03:09:28.826Z,84.89
2022-10-04T03:11:56.703Z,84.96
2022-10-04T03:14:26.698Z,85.00
2022-10-04T03:17:00.505Z,85.05
2022-10-04T03:19:29.438Z,85.09
2022-10-04T03:22:00.873Z,85.16
2022-10-04T03:24:34.477Z,85.23
2022-10-04T03:27:05.191Z,85.30
2022-10-04T03:29:33.441Z,85.36
2022-10-04T03:32:02.866Z,85.40
2022-10-04T03:34:37.891Z,85.47
2022-10-04T03:37:15.579Z,85.49
2022-10-04T03:39:46.757Z,85.54
2022-10-04T03:42:16.647Z,85.56
2022-10-04T03:44:48.919Z,85.65
2022-10-04T03:47:38.288Z,85.75
2022-10-04T03:50:15.527Z,85.84
2022-10-04T03:52:53.328Z,85.98
2022-10-04T03:55:22.316Z,86.06
2022-10-04T03:57:48.918Z,86.16
2022-10-04T04:00:17.832Z,86.27
2022-10-04T04:03:00.280Z,86.34
2022-10-04T04:05:44.091Z,86.41
2022-10-04T04:08:29.973Z,86.47
2022-10-04T04:10:58.990Z,86.54
2022-10-04T04:13:31.754Z,86.60
2022-10-04T04:16:01.552Z,86.67
2022-10-04T04:18:33.069Z,86.73
2022-10-04T04:21:02.109Z,86.84
2022-10-04T04:23:35.950Z,86.94
2022-10-04T04:26:19.711Z,86.96
2022-10-04T04:28:51.723Z,86.97
2022-10-04T04:31:40.970Z,87.00
2022-10-04T04:35:06.331Z,87.00
2022-10-04T04:37:35.940Z,87.00
2022-10-04T04:40:32.217Z,86.96
2022-10-04T04:43:00.920Z,86.95
2022-10-04T04:45:30.460Z,87.07
2022-10-04T04:47:58.413Z,87.11
2022-10-04T04:50:33.818Z,87.11
2022-10-04T04:53:23.143Z,87.17
2022-10-04T04:56:03.949Z,87.11
2022-10-04T04:58:42.801Z,87.07
2022-10-04T05:01:42.444Z,87.04
2022-10-04T05:04:08.938Z,86.96
2022-10-04T05:06:44.331Z,86.91
2022-10-04T05:09:32.151Z,86.89
2022-10-04T05:12:08.112Z,86.83
2022-10-04T05:14:37.967Z,86.69
2022-10-04T05:17:05.075Z,86.60
2022-10-04T05:19:35.624Z,86.49
2022-10-04T05:22:11.515Z,86.40
2022-10-04T05:24:44.234Z,86.33
2022-10-04T05:27:37.509Z,86.21
2022-10-04T05:30:29.411Z,86.14
2022-10-04T05:33:08.090Z,85.86
2022-10-04T05:35:53.568Z,85.61
2022-10-04T05:39:06.044Z,85.41
2022-10-04T05:41:51.770Z,85.32
2022-10-04T05:44:31.528Z,85.24
2022-10-04T05:47:02.649Z,85.11
2022-10-04T05:49:36.103Z,85.02
2022-10-04T05:52:10.825Z,84.97
2022-10-04T05:54:37.373Z,84.78
2022-10-04T05:57:44.178Z,84.72
2022-10-04T06:00:16.409Z,84.66
2022-10-04T06:03:04.273Z,84.59
2022-10-04T06:05:54.445Z,84.55
2022-10-04T06:08:49.960Z,84.46
2022-10-04T06:11:35.139Z,84.43
2022-10-04T06:14:23.447Z,84.36
2022-10-04T06:17:34.245Z,84.31
2022-10-04T06:20:21.713Z,84.24
2022-10-04T06:22:55.832Z,84.21
2022-10-04T06:25:26.972Z,84.20
2022-10-04T06:28:22.935Z,84.05
2022-10-04T06:31:28.049Z,83.89
2022-10-04T06:34:41.406Z,83.79
2022-10-04T06:37:45.097Z,83.71
2022-10-04T06:40:42.997Z,83.66
2022-10-04T06:43:57.195Z,83.44
2022-10-04T06:46:47.770Z,83.33
2022-10-04T06:49:26.159Z,83.28
2022-10-04T06:52:23.323Z,83.18
2022-10-04T06:55:33.339Z,83.05
2022-10-04T06:58:31.946Z,82.97
2022-10-04T07:01:21.895Z,82.76
2022-10-04T07:04:12.569Z,82.53
2022-10-04T07:07:33.843Z,82.31
2022-10-04T07:10:30.426Z,82.25
2022-10-04T07:13:12.454Z,81.95
2022-10-04T07:15:55.133Z,81.78
2022-10-04T07:19:01.062Z,81.62
2022-10-04T07:21:36.556Z,81.45
2022-10-04T07:24:03.234Z,81.37
2022-10-04T07:26:43.339Z,81.11
2022-10-04T07:29:33.430Z,80.90
2022-10-04T07:32:05.929Z,80.85
2022-10-04T07:34:47.821Z,80.80
2022-10-04T07:37:15.695Z,80.63
2022-10-04T07:40:08.053Z,80.29
2022-10-04T07:42:51.280Z,79.99
2022-10-04T07:45:31.982Z,79.85
2022-10-04T07:48:24.201Z,79.66
2022-10-04T07:51:19.500Z,78.87
2022-10-04T07:53:55.577Z,78.65
2022-10-04T07:56:40.169Z,78.53
2022-10-04T07:59:40.105Z,78.46
2022-10-04T08:02:16.027Z,77.92
2022-10-04T08:04:58.308Z,77.60
2022-10-04T08:08:04.878Z,77.40
2022-10-04T08:10:58.939Z,77.13
2022-10-04T08:13:38.488Z,76.95
2022-10-04T08:16:35.637Z,77.16
2022-10-04T08:19:24.011Z,77.19
2022-10-04T08:22:02.092Z,77.02
2022-10-04T08:24:59.181Z,76.43
2022-10-04T08:27:36.900Z,76.11
2022-10-04T08:30:15.576Z,75.90
2022-10-04T08:33:09.302Z,75.69
2022-10-04T08:35:52.178Z,75.50
2022-10-04T08:38:41.763Z,75.06
2022-10-04T08:41:35.968Z,74.92
2022-10-04T08:44:40.883Z,74.60
2022-10-04T08:47:07.222Z,74.18
2022-10-04T08:50:06.852Z,73.85
2022-10-04T08:52:36.707Z,73.35
2022-10-04T08:55:45.590Z,72.91
2022-10-04T08:58:37.401Z,72.80
2022-10-04T09:01:38.636Z,72.23
2022-10-04T09:04:36.853Z,72.37
2022-10-04T09:07:50.580Z,72.09
2022-10-04T09:10:45.414Z,71.75
2022-10-04T09:13:45.513Z,71.48
2022-10-04T09:16:32.685Z,71.37
2022-10-04T09:19:51.271Z,70.60
2022-10-04T09:22:30.694Z,70.06
2022-10-04T09:25:40.987Z,69.71
2022-10-04T09:28:37.568Z,69.13
2022-10-04T09:31:28.013Z,69.52
2022-10-04T09:34:07.055Z,69.35
2022-10-04T09:36:43.710Z,68.97
2022-10-04T09:39:44.845Z,68.11
2022-10-04T09:42:56.709Z,67.57
2022-10-04T09:45:55.033Z,66.88
2022-10-04T09:48:53.075Z,65.71
2022-10-04T09:51:44.705Z,64.48
2022-10-04T09:54:31.406Z,64.07
2022-10-04T09:57:38.795Z,63.38
2022-10-04T10:00:26.421Z,62.70
2022-10-04T10:03:43.238Z,62.22
2022-10-04T10:06:17.831Z,62.43
2022-10-04T10:08:52.863Z,61.72
2022-10-04T10:12:12.263Z,61.78
2022-10-04T10:15:19.246Z,62.26
2022-10-04T10:18:26.025Z,61.38
2022-10-04T10:21:12.632Z,61.33
2022-10-04T10:24:00.980Z,60.93
2022-10-04T10:27:01.508Z,60.56
2022-10-04T10:29:56.464Z,59.95
2022-10-04T10:32:50.009Z,60.22
2022-10-04T10:35:44.307Z,59.38
2022-10-04T10:38:24.751Z,57.90
2022-10-04T10:41:08.344Z,57.65
2022-10-04T10:43:40.251Z,57.21
2022-10-04T10:46:34.547Z,57.39
2022-10-04T10:49:22.855Z,57.01
2022-10-04T10:52:12.663Z,55.13
2022-10-04T10:55:28.932Z,55.28
2022-10-04T10:58:26.293Z,53.93
2022-10-04T11:01:13.510Z,53.13
2022-10-04T11:04:14.006Z,51.58
2022-10-04T11:07:30.458Z,51.01
2022-10-04T11:10:28.697Z,51.25
2022-10-04T11:13:13.809Z,50.32
2022-10-04T11:16:04.890Z,50.35
2022-10-04T11:18:59.978Z,49.21
2022-10-04T11:22:08.060Z,48.77
2022-10-04T11:24:56.566Z,47.46
2022-10-04T11:27:53.442Z,46.52
2022-10-04T11:30:54.016Z,46.90
2022-10-04T11:34:02.405Z,47.76
2022-10-04T11:37:16.465Z,47.52
2022-10-04T11:40:05.926Z,47.20
2022-10-04T11:43:00.905Z,46.22
2022-10-04T11:45:37.710Z,46.41
2022-10-04T11:48:38.311Z,46.18
2022-10-04T11:51:43.224Z,47.11
2022-10-04T11:54:55.789Z,47.16
2022-10-04T11:57:26.897Z,47.34
2022-10-04T12:00:17.971Z,47.33
2022-10-04T12:03:34.782Z,47.60
2022-10-04T12:06:34.344Z,47.41
2022-10-04T12:09:32.227Z,47.00
2022-10-04T12:12:50.572Z,46.43
2022-10-04T12:15:22.786Z,47.12
2022-10-04T12:18:17.091Z,46.27
2022-10-04T12:21:12.052Z,45.55
2022-10-04T12:24:36.603Z,45.57
2022-10-04T12:27:34.754Z,45.61
2022-10-04T12:30:54.108Z,45.18
2022-10-04T12:33:37.897Z,45.84
2022-10-04T12:36:07.800Z,46.42
2022-10-04T12:39:14.236Z,46.82
2022-10-04T12:42:16.010Z,45.03
2022-10-04T12:44:56.280Z,45.21
2022-10-04T12:47:50.207Z,44.75
2022-10-04T12:50:59.463Z,45.06
2022-10-04T12:53:33.940Z,45.67
2022-10-04T12:56:38.300Z,46.26
2022-10-04T12:59:40.909Z,46.71
2022-10-04T13:02:47.446Z,47.06
2022-10-04T13:05:50.122Z,47.29
2022-10-04T13:08:55.823Z,47.56
2022-10-04T13:11:35.651Z,47.36
2022-10-04T13:14:45.180Z,48.12
2022-10-04T13:17:38.828Z,48.55
2022-10-04T13:20:49.847Z,48.39
2022-10-04T13:23:27.119Z,48.64
2022-10-04T13:26:24.613Z,48.76
2022-10-04T13:29:03.707Z,49.33
2022-10-04T13:32:10.572Z,49.90
2022-10-04T13:34:54.378Z,50.71
2022-10-04T13:38:12.785Z,51.07
2022-10-04T13:41:01.835Z,51.24
2022-10-04T13:44:36.785Z,51.49
2022-10-04T13:47:35.661Z,51.85
2022-10-04T13:50:14.124Z,52.27
2022-10-04T13:53:11.144Z,51.24
2022-10-04T13:56:17.223Z,51.02
2022-10-04T13:58:51.874Z,51.55
2022-10-04T14:01:56.960Z,51.30
2022-10-04T14:04:48.036Z,51.26
2022-10-04T14:07:48.612Z,51.42
2022-10-04T14:10:47.130Z,51.69
2022-10-04T14:14:04.914Z,51.68
2022-10-04T14:17:02.905Z,52.06
2022-10-04T14:20:26.573Z,52.51
2022-10-04T14:23:20.615Z,52.71
2022-10-04T14:26:06.807Z,52.77
2022-10-04T14:29:02.078Z,52.83
2022-10-04T14:32:08.453Z,53.06
2022-10-04T14:35:04.657Z,53.13
2022-10-04T14:38:40.790Z,53.25
2022-10-04T14:41:14.920Z,53.93
2022-10-04T14:44:23.864Z,54.41
2022-10-04T14:47:36.692Z,54.38
2022-10-04T14:50:32.917Z,54.73
2022-10-04T14:53:49.366Z,54.55
2022-10-04T14:56:43.491Z,55.14
2022-10-04T14:59:13.316Z,55.33
2022-10-04T15:02:30.699Z,55.58
2022-10-04T15:05:04.662Z,56.06
2022-10-04T15:07:40.507Z,56.18
2022-10-04T15:10:19.932Z,56.48
2022-10-04T15:13:15.034Z,57.06
2022-10-04T15:16:14.190Z,56.95
2022-10-04T15:19:04.189Z,56.90
2022-10-04T15:21:47.390Z,57.11
2022-10-04T15:24:17.228Z,57.41
2022-10-04T15:27:14.841Z,57.46
2022-10-04T15:29:57.493Z,57.75
2022-10-04T15:32:35.627Z,57.66
2022-10-04T15:35:35.290Z,57.87
2022-10-04T15:38:32.043Z,58.75
2022-10-04T15:41:20.114Z,59.41
2022-10-04T15:44:14.660Z,59.82
2022-10-04T15:47:12.015Z,60.25
2022-10-04T15:50:20.760Z,60.65
2022-10-04T15:53:20.023Z,60.61
2022-10-04T15:56:01.222Z,60.70
2022-10-04T15:59:05.273Z,60.67
2022-10-04T16:01:54.690Z,61.25
2022-10-04T16:05:08.605Z,61.93
2022-10-04T16:08:00.989Z,62.12
2022-10-04T16:11:33.196Z,62.45
2022-10-04T16:14:29.547Z,62.74
2022-10-04T16:17:21.486Z,63.00
2022-10-04T16:19:58.926Z,63.25
2022-10-04T16:22:34.708Z,63.56
2022-10-04T16:25:23.227Z,63.75
2022-10-04T16:27:55.687Z,63.90
2022-10-04T16:30:27.239Z,64.09
2022-10-04T16:33:24.386Z,64.22
2022-10-04T16:36:09.457Z,64.75
2022-10-04T16:39:03.414Z,64.97
2022-10-04T16:41:45.796Z,65.26
2022-10-04T16:44:53.801Z,65.53
2022-10-04T16:47:31.177Z,65.71
2022-10-04T16:50:01.022Z,66.14
2022-10-04T16:52:49.642Z,66.69
2022-10-04T16:55:41.944Z,67.14
2022-10-04T16:58:26.655Z,67.62
2022-10-04T17:01:27.141Z,67.96
2022-10-04T17:04:03.958Z,68.40
2022-10-04T17:07:13.209Z,68.79
2022-10-04T17:10:02.587Z,69.16
2022-10-04T17:13:04.216Z,69.74
2022-10-04T17:15:46.770Z,70.04
2022-10-04T17:18:32.307Z,70.34
2022-10-04T17:21:05.447Z,70.63
2022-10-04T17:24:33.441Z,71.05
2022-10-04T17:28:19.430Z,71.58
2022-10-04T17:31:07.613Z,72.01
2022-10-04T17:34:15.252Z,72.43
2022-10-04T17:36:49.644Z,72.85
2022-10-04T17:40:27.348Z,73.35
2022-10-04T17:43:30.703Z,73.59
2022-10-04T17:46:30.883Z,73.94
2022-10-04T17:49:34.539Z,74.20
2022-10-04T17:52:23.170Z,74.38
2022-10-04T17:55:13.369Z,74.56
2022-10-04T17:58:01.361Z,74.72
2022-10-04T18:00:51.482Z,74.96
2022-10-04T18:03:51.921Z,75.10
2022-10-04T18:06:54.775Z,75.22
2022-10-04T18:09:27.807Z,75.32
2022-10-04T18:12:32.708Z,75.41
2022-10-04T18:15:18.103Z,75.51
2022-10-04T18:17:48.281Z,75.73
2022-10-04T18:20:33.731Z,75.85
2022-10-04T18:23:24.893Z,76.04
2022-10-04T18:26:02.264Z,76.21
2022-10-04T18:28:29.434Z,76.36
2022-10-04T18:30:59.669Z,76.50
2022-10-04T18:33:51.154Z,76.65
2022-10-04T18:36:23.937Z,76.77
2022-10-04T18:39:17.766Z,76.89
2022-10-04T18:41:57.141Z,76.92
2022-10-04T18:44:29.234Z,76.96
2022-10-04T18:46:59.956Z,77.02
2022-10-04T18:49:32.763Z,77.12
2022-10-04T18:52:20.563Z,77.19
2022-10-04T18:55:07.788Z,77.22
2022-10-04T18:58:03.725Z,77.32
2022-10-04T19:00:58.447Z,77.57
2022-10-04T19:03:47.246Z,77.79
2022-10-04T19:06:28.634Z,78.05
2022-10-04T19:09:20.154Z,78.26
2022-10-04T19:12:08.442Z,78.16
2022-10-04T19:15:04.878Z,78.46
2022-10-04T19:17:46.466Z,78.67
2022-10-04T19:20:36.002Z,78.84
2022-10-04T19:23:15.049Z,79.02
2022-10-04T19:26:30.101Z,79.16
2022-10-04T19:28:58.512Z,79.22
2022-10-04T19:31:43.610Z,79.28
2022-10-04T19:35:08.864Z,79.42
2022-10-04T19:37:50.955Z,79.46
2022-10-04T19:40:53.509Z,79.64
2022-10-04T19:43:37.301Z,79.81
2022-10-04T19:46:42.023Z,79.86
2022-10-04T19:49:22.800Z,79.90
2022-10-04T19:52:18.130Z,79.97
2022-10-04T19:54:47.991Z,80.06
2022-10-04T19:57:15.038Z,80.13
2022-10-04T19:59:47.899Z,80.17
2022-10-04T20:02:17.574Z,80.12
2022-10-04T20:04:48.463Z,80.00
2022-10-04T20:07:26.912Z,79.87
2022-10-04T20:10:28.903Z,79.82
2022-10-04T20:13:21.010Z,79.82
2022-10-04T20:15:59.935Z,79.75
2022-10-04T20:18:33.352Z,79.77
2022-10-04T20:21:07.708Z,79.81
2022-10-04T20:23:40.911Z,79.86
2022-10-04T20:26:09.345Z,79.90
2022-10-04T20:28:41.579Z,79.85
2022-10-04T20:31:32.579Z,79.98
2022-10-04T20:34:32.583Z,80.08
2022-10-04T20:36:59.834Z,80.16
2022-10-04T20:39:39.587Z,80.20
2022-10-04T20:42:32.466Z,80.24
2022-10-04T20:45:08.371Z,80.27
2022-10-04T20:47:57.017Z,80.32
2022-10-04T20:50:35.833Z,80.41
2022-10-04T20:53:26.832Z,80.52
2022-10-04T20:56:30.893Z,80.62
2022-10-04T20:59:06.337Z,80.78
2022-10-04T21:01:36.498Z,80.92
2022-10-04T21:04:32.356Z,81.03
2022-10-04T21:07:07.322Z,81.12
2022-10-04T21:09:38.142Z,81.21
2022-10-04T21:12:07.175Z,81.35
2022-10-04T21:14:36.620Z,81.46
2022-10-04T21:17:30.094Z,81.59
2022-10-04T21:19:56.931Z,81.77
2022-10-04T21:22:28.227Z,81.88
2022-10-04T21:24:56.625Z,81.94
2022-10-04T21:27:31.952Z,82.10
2022-10-04T21:30:05.012Z,82.56
2022-10-04T21:32:36.906Z,82.83
2022-10-04T21:35:05.481Z,83.02
2022-10-04T21:37:32.733Z,83.15
2022-10-04T21:39:59.209Z,83.20
2022-10-04T21:42:25.641Z,83.16
2022-10-04T21:44:52.298Z,83.12
2022-10-04T21:47:22.413Z,82.98
2022-10-04T21:49:51.198Z,82.85
2022-10-04T21:52:18.467Z,82.70
2022-10-04T21:54:45.378Z,82.59
2022-10-04T21:57:12.578Z,82.50
2022-10-04T21:59:38.883Z,82.45
2022-10-04T22:02:07.095Z,82.41
2022-10-04T22:04:33.497Z,82.31
2022-10-04T22:06:59.904Z,82.20
2022-10-04T22:09:26.345Z,82.10
2022-10-04T22:11:52.678Z,82.03
2022-10-04T22:14:19.040Z,81.99
2022-10-04T22:16:45.806Z,81.99
2022-10-04T22:19:12.297Z,82.08
2022-10-04T22:21:38.650Z,82.20
2022-10-04T22:24:15.579Z,82.19
2022-10-04T22:26:41.933Z,82.16
2022-10-04T22:29:13.990Z,82.01
2022-10-04T22:31:43.974Z,81.88
2022-10-04T22:34:20.156Z,81.83
2022-10-04T22:36:48.441Z,81.79
2022-10-04T22:39:20.011Z,81.75
2022-10-04T22:41:52.228Z,81.73
2022-10-04T22:44:35.961Z,81.69
2022-10-04T22:47:06.129Z,81.65
2022-10-04T22:49:35.543Z,81.66
2022-10-04T22:52:16.586Z,81.80
2022-10-04T22:54:46.250Z,82.42
2022-10-04T22:57:15.849Z,82.66
2022-10-04T22:59:45.899Z,82.64
2022-10-04T23:02:23.560Z,82.70
2022-10-04T23:04:53.448Z,82.77
2022-10-04T23:07:20.792Z,82.79
2022-10-04T23:09:47.511Z,82.73
2022-10-04T23:12:13.966Z,82.67
2022-10-04T23:14:40.611Z,82.54
2022-10-04T23:17:28.847Z,82.35
2022-10-04T23:20:06.346Z,82.19
2022-10-04T23:22:32.784Z,82.18
2022-10-04T23:24:59.831Z,82.18
2022-10-04T23:27:26.265Z,82.20
2022-10-04T23:30:03.465Z,82.49
2022-10-04T23:32:31.210Z,82.64
2022-10-04T23:34:58.025Z,82.79
2022-10-04T23:37:31.411Z,82.92
2022-10-04T23:39:58.386Z,83.03
2022-10-04T23:42:31.693Z,83.23
2022-10-04T23:44:59.622Z,83.29
2022-10-04T23:47:35.717Z,83.30
2022-10-04T23:50:20.246Z,83.25
2022-10-04T23:52:46.994Z,83.18
2022-10-04T23:55:20.171Z,83.12
2022-10-04T23:57:46.846Z,83.03
